Time;durP1;ratioP1;P1;durP2;ratioP2;P2;SDS_P1;SDS_P2;PMS_P1;PMS_P2;Temp;Humidity;BMP_temperature;BMP_pressure;BME280_temperature;BME280_humidity;BME280_pressure;Samples;Min_cycle;Max_cycle;Signal;HPM_P1;HPM_P2
2023/10/02 00:01:59;;;;;;;17.25;11.43;;;16.30;99.90;;;;;;5095501;28;19923;-86
2023/10/02 00:04:25;;;;;;;20.05;12.25;;;16.20;99.90;;;;;;5073604;28;20479;-87
2023/10/02 00:07:05;;;;;;;18.95;12.50;;;15.20;99.90;;;;;;5081326;27;20031;-86
2023/10/02 00:09:41;;;;;;;19.40;12.48;;;16.40;99.90;;;;;;5082394;28;20043;-86
2023/10/02 00:12:11;;;;;;;22.20;11.77;;;16.30;99.90;;;;;;5098237;28;20055;-86
2023/10/02 00:14:39;;;;;;;19.15;11.52;;;15.90;99.90;;;;;;5073191;28;20039;-86
2023/10/02 00:17:08;;;;;;;20.40;11.35;;;16.00;99.90;;;;;;5090229;28;20109;-86
2023/10/02 00:19:44;;;;;;;21.38;12.23;;;16.10;99.90;;;;;;5099226;28;20050;-86
2023/10/02 00:22:34;;;;;;;18.73;12.25;;;16.00;99.90;;;;;;5093958;28;20047;-86
2023/10/02 00:25:07;;;;;;;19.98;12.20;;;16.10;99.90;;;;;;5100413;28;20058;-86
2023/10/02 00:27:38;;;;;;;18.10;11.88;;;16.00;99.90;;;;;;5106165;28;20130;-86
2023/10/02 00:30:07;;;;;;;20.15;11.85;;;16.10;99.90;;;;;;5093910;28;20546;-86
2023/10/02 00:32:34;;;;;;;21.88;12.85;;;16.10;99.90;;;;;;5104317;28;20046;-87
2023/10/02 00:35:04;;;;;;;19.00;11.68;;;16.20;99.90;;;;;;5072122;28;20137;-86
2023/10/02 00:40:22;;;;;;;18.50;12.02;;;16.20;99.90;;;;;;5107689;28;20075;-87
2023/10/02 00:42:58;;;;;;;18.92;12.18;;;16.10;99.90;;;;;;5099857;28;20090;-86
2023/10/02 00:45:39;;;;;;;19.40;11.93;;;16.20;99.90;;;;;;5109928;28;20047;-86
2023/10/02 00:50:54;;;;;;;18.95;11.50;;;16.30;99.90;;;;;;5110291;27;20060;-86
2023/10/02 00:53:38;;;;;;;19.00;12.13;;;16.30;99.90;;;;;;5080057;27;20047;-86
2023/10/02 00:56:23;;;;;;;18.52;12.65;;;16.30;99.90;;;;;;5092801;28;20044;-86
2023/10/02 00:59:00;;;;;;;19.98;12.57;;;16.30;99.90;;;;;;5094118;28;20391;-86
2023/10/02 01:01:31;;;;;;;18.15;11.75;;;16.40;99.90;;;;;;5093426;28;20055;-87
2023/10/02 01:04:11;;;;;;;16.73;11.90;;;16.40;99.90;;;;;;5097848;27;20043;-86
2023/10/02 01:10:06;;;;;;;19.85;12.15;;;16.40;99.90;;;;;;5044859;28;20049;-86
2023/10/02 01:12:38;;;;;;;18.75;12.55;;;16.40;99.90;;;;;;5045113;28;20055;-86
2023/10/02 01:15:07;;;;;;;21.00;13.20;;;16.40;99.90;;;;;;5082172;27;20577;-86
2023/10/02 01:17:33;;;;;;;18.10;12.05;;;16.50;99.90;;;;;;5112220;27;20043;-87
2023/10/02 01:20:01;;;;;;;20.30;13.05;;;16.50;99.90;;;;;;5095249;28;20105;-86
2023/10/02 01:22:43;;;;;;;19.52;12.65;;;17.10;99.90;;;;;;5106370;27;20118;-87
2023/10/02 01:25:16;;;;;;;18.25;10.98;;;16.50;99.90;;;;;;5099042;28;20131;-86
2023/10/02 01:27:47;;;;;;;18.98;11.57;;;16.50;99.90;;;;;;5092918;28;20082;-86
2023/10/02 01:30:17;;;;;;;19.38;12.30;;;16.50;99.90;;;;;;5092042;28;20040;-86
2023/10/02 01:32:49;;;;;;;23.10;13.35;;;17.00;99.90;;;;;;5091818;27;20078;-86
2023/10/02 01:35:18;;;;;;;21.90;13.38;;;16.60;99.90;;;;;;5120215;27;20083;-86
2023/10/02 01:37:47;;;;;;;19.92;12.85;;;16.60;99.90;;;;;;5092785;28;20040;-87
2023/10/02 01:40:33;;;;;;;21.92;12.77;;;16.60;99.90;;;;;;5077731;28;20134;-86
2023/10/02 01:43:12;;;;;;;20.55;12.45;;;16.60;99.90;;;;;;5092072;27;20112;-86
2023/10/02 01:45:48;;;;;;;19.98;13.50;;;16.60;99.90;;;;;;5092615;28;20047;-86
2023/10/02 01:48:36;;;;;;;22.33;13.70;;;16.70;99.90;;;;;;5092879;27;20044;-86
2023/10/02 01:51:15;;;;;;;22.70;12.63;;;16.60;99.90;;;;;;5131091;27;20039;-87
2023/10/02 01:53:48;;;;;;;20.33;13.00;;;16.70;99.90;;;;;;5120787;27;20077;-86
2023/10/02 01:56:16;;;;;;;20.70;12.77;;;16.70;99.90;;;;;;5090751;28;20050;-86
2023/10/02 01:58:43;;;;;;;22.85;12.88;;;16.70;99.90;;;;;;5096496;27;20055;-87
2023/10/02 02:01:09;;;;;;;21.63;13.38;;;17.50;99.90;;;;;;5100032;27;20035;-86
2023/10/02 02:03:39;;;;;;;20.27;14.10;;;16.70;99.90;;;;;;5129973;27;20061;-87
2023/10/02 02:06:11;;;;;;;21.58;12.98;;;16.60;99.90;;;;;;5110433;27;20502;-86
2023/10/02 02:08:43;;;;;;;18.20;11.65;;;16.70;99.90;;;;;;5106268;28;20177;-86
2023/10/02 02:11:20;;;;;;;20.20;13.02;;;16.70;99.90;;;;;;5097028;28;20510;-87
2023/10/02 02:13:53;;;;;;;21.52;12.75;;;16.70;99.90;;;;;;5082257;27;20031;-86
2023/10/02 02:16:22;;;;;;;17.80;12.65;;;16.70;99.90;;;;;;5110028;27;20054;-86
2023/10/02 02:18:53;;;;;;;22.52;13.75;;;16.90;99.90;;;;;;5094016;27;20051;-86
2023/10/02 02:21:24;;;;;;;19.48;12.57;;;16.70;99.90;;;;;;5088888;28;20040;-86
2023/10/02 02:24:03;;;;;;;18.00;11.80;;;16.70;99.90;;;;;;5074633;28;20046;-86
2023/10/02 02:26:31;;;;;;;21.13;13.77;;;16.80;99.90;;;;;;5090717;28;20061;-86
2023/10/02 02:28:57;;;;;;;23.70;13.50;;;16.70;99.90;;;;;;5074670;28;20150;-86
2023/10/02 02:31:39;;;;;;;19.83;12.63;;;16.80;99.90;;;;;;5093560;27;20047;-86
2023/10/02 02:34:14;;;;;;;20.70;13.25;;;16.70;99.90;;;;;;5095732;28;20104;-87
2023/10/02 02:36:42;;;;;;;18.85;12.10;;;16.70;99.90;;;;;;5090718;28;20047;-86
2023/10/02 02:39:15;;;;;;;23.10;13.23;;;17.50;99.90;;;;;;5105700;27;20059;-87
2023/10/02 02:41:48;;;;;;;23.05;13.32;;;16.70;99.90;;;;;;5093941;27;20050;-86
2023/10/02 02:47:04;;;;;;;21.50;13.18;;;16.70;99.90;;;;;;5105982;27;20047;-87
2023/10/02 02:49:32;;;;;;;18.83;12.50;;;16.80;99.90;;;;;;5089762;28;20044;-87
2023/10/02 02:51:58;;;;;;;17.35;12.05;;;16.70;99.90;;;;;;5073278;28;20035;-86
2023/10/02 02:54:25;;;;;;;19.90;12.35;;;16.70;99.90;;;;;;5090939;28;20128;-85
2023/10/02 02:56:58;;;;;;;22.48;13.05;;;16.90;99.90;;;;;;5106817;27;20027;-86
2023/10/02 02:59:28;;;;;;;22.92;13.23;;;16.60;99.90;;;;;;5095552;28;20047;-86
2023/10/02 03:02:10;;;;;;;22.00;13.05;;;16.60;99.90;;;;;;5094330;28;20047;-86
2023/10/02 03:04:39;;;;;;;20.98;13.32;;;16.40;99.90;;;;;;5096370;28;20047;-87
2023/10/02 03:07:09;;;;;;;21.33;12.98;;;16.70;99.90;;;;;;5095666;27;20047;-86
2023/10/02 03:09:38;;;;;;;21.38;13.40;;;16.50;99.90;;;;;;5089170;27;20048;-86
2023/10/02 03:12:05;;;;;;;20.35;12.80;;;16.50;99.90;;;;;;5108214;27;20437;-87
2023/10/02 03:14:33;;;;;;;20.60;12.93;;;16.50;99.90;;;;;;5077244;28;20047;-86
2023/10/02 03:17:22;;;;;;;20.42;13.00;;;16.50;99.90;;;;;;5104513;27;20368;-86
2023/10/02 03:19:45;;;;;;;20.13;12.70;;;16.50;99.90;;;;;;5090334;28;20059;-87
2023/10/02 03:22:11;;;;;;;20.90;13.05;;;16.70;99.90;;;;;;5090310;28;20340;-86
2023/10/02 03:24:39;;;;;;;20.23;12.07;;;16.40;99.90;;;;;;5087216;27;20047;-86
2023/10/02 03:27:08;;;;;;;21.38;12.85;;;16.40;99.90;;;;;;5093543;27;20047;-86
2023/10/02 03:29:34;;;;;;;21.67;13.13;;;16.40;99.90;;;;;;5087961;28;20402;-87
2023/10/02 03:32:05;;;;;;;21.77;13.55;;;16.30;99.90;;;;;;5107267;27;20132;-86
2023/10/02 03:34:33;;;;;;;21.95;13.25;;;16.30;99.90;;;;;;5101701;27;20538;-87
2023/10/02 03:40:00;;;;;;;20.05;12.85;;;16.20;99.90;;;;;;5093813;27;20089;-86
2023/10/02 03:42:33;;;;;;;21.08;13.73;;;16.20;99.90;;;;;;5084972;27;20532;-86
2023/10/02 03:45:02;;;;;;;22.73;13.90;;;16.10;99.90;;;;;;5092478;28;20035;-86
2023/10/02 03:47:33;;;;;;;23.25;13.77;;;16.90;99.90;;;;;;5077646;28;20112;-86
2023/10/02 03:50:02;;;;;;;20.90;13.65;;;16.10;99.90;;;;;;5089557;28;20035;-86
2023/10/02 03:52:30;;;;;;;23.00;14.23;;;16.00;99.90;;;;;;5099916;27;20510;-86
2023/10/02 03:54:56;;;;;;;21.23;13.65;;;15.90;99.90;;;;;;5097564;28;20059;-86
2023/10/02 04:02:54;;;;;;;19.33;13.35;;;15.70;99.90;;;;;;5093995;28;20121;-86
2023/10/02 04:05:32;;;;;;;19.20;13.65;;;16.10;99.90;;;;;;5088608;27;20058;-86
2023/10/02 04:08:17;;;;;;;20.42;12.57;;;15.70;99.90;;;;;;5090520;28;20043;-87
2023/10/02 04:10:56;;;;;;;20.92;13.93;;;15.60;99.90;;;;;;5090002;28;20039;-86
2023/10/02 04:13:31;;;;;;;21.05;13.52;;;15.60;99.90;;;;;;5088590;28;20127;-86
2023/10/02 04:19:02;;;;;;;22.15;14.15;;;15.50;99.90;;;;;;5100247;28;20059;-87
2023/10/02 04:21:29;;;;;;;23.20;15.02;;;15.90;99.90;;;;;;5088001;28;20131;-86
2023/10/02 04:23:58;;;;;;;24.00;15.45;;;15.50;99.90;;;;;;5095648;27;20057;-86
2023/10/02 04:26:28;;;;;;;25.55;15.25;;;15.50;99.90;;;;;;5112301;27;20372;-86
2023/10/02 04:28:58;;;;;;;22.35;13.98;;;15.50;99.90;;;;;;5107556;27;20107;-85
2023/10/02 04:31:30;;;;;;;24.65;15.05;;;15.50;99.90;;;;;;5110470;27;20099;-86
2023/10/02 04:36:42;;;;;;;24.08;14.02;;;15.50;99.90;;;;;;5099509;28;20055;-86
2023/10/02 04:42:14;;;;;;;23.20;14.15;;;15.50;99.90;;;;;;5092593;27;20043;-86
2023/10/02 04:44:44;;;;;;;21.20;14.30;;;15.50;99.90;;;;;;5097197;28;20061;-86
2023/10/02 04:47:18;;;;;;;23.17;14.50;;;15.80;99.90;;;;;;5080076;28;20054;-86
2023/10/02 04:55:43;;;;;;;22.02;13.55;;;15.40;99.90;;;;;;5031308;28;20049;-86
2023/10/02 04:58:14;;;;;;;21.27;14.45;;;15.30;99.90;;;;;;5028643;28;20041;-86
2023/10/02 05:01:18;;;;;;;26.17;13.73;;;15.30;99.90;;;;;;5058736;27;20047;-86
2023/10/02 05:03:53;;;;;;;23.08;13.77;;;15.30;99.90;;;;;;5095110;28;20201;-86
2023/10/02 05:07:04;;;;;;;22.17;13.70;;;15.30;99.90;;;;;;5083791;27;20035;-86
2023/10/02 05:09:19;;;;;;;21.77;13.27;;;15.20;99.90;;;;;;5083617;27;20297;-86
2023/10/02 05:11:53;;;;;;;22.88;13.65;;;15.20;99.90;;;;;;5096214;27;20073;-86
2023/10/02 05:14:26;;;;;;;23.75;14.27;;;15.10;99.90;;;;;;5112056;27;20455;-86
2023/10/02 05:22:27;;;;;;;23.08;14.00;;;15.10;99.90;;;;;;5091491;28;20054;-85
2023/10/02 05:24:58;;;;;;;22.17;14.38;;;15.80;99.90;;;;;;5074250;28;20092;-86
2023/10/02 05:27:37;;;;;;;22.65;14.05;;;15.10;99.90;;;;;;5106211;27;20134;-85
2023/10/02 05:30:12;;;;;;;23.05;13.85;;;15.10;99.90;;;;;;5112810;27;20118;-86
2023/10/02 05:32:39;;;;;;;22.65;14.00;;;15.10;99.90;;;;;;5107462;27;20409;-86
2023/10/02 05:37:39;;;;;;;20.55;13.50;;;15.00;99.90;;;;;;5092253;27;20144;-85
2023/10/02 05:42:53;;;;;;;21.63;14.75;;;14.90;99.90;;;;;;5092007;28;20063;-86
2023/10/02 05:48:07;;;;;;;25.05;13.48;;;14.90;99.90;;;;;;5092326;28;20510;-85
2023/10/02 05:50:34;;;;;;;21.73;13.25;;;14.90;99.90;;;;;;5092282;28;20051;-86
2023/10/02 05:53:00;;;;;;;24.55;13.88;;;14.90;99.90;;;;;;5075865;28;20172;-86
2023/10/02 05:55:25;;;;;;;24.23;14.02;;;15.80;99.90;;;;;;5099359;27;20055;-86
2023/10/02 05:57:54;;;;;;;24.95;13.88;;;14.90;99.90;;;;;;5110691;28;20085;-85
2023/10/02 06:00:20;;;;;;;23.58;13.90;;;14.90;99.90;;;;;;5092010;28;20036;-85
2023/10/02 06:02:58;;;;;;;23.05;13.65;;;14.90;99.90;;;;;;5092681;28;20052;-86
2023/10/02 06:05:24;;;;;;;24.38;13.18;;;15.00;99.90;;;;;;5104378;27;20540;-86
2023/10/02 06:07:51;;;;;;;24.13;14.23;;;14.90;99.90;;;;;;5102384;28;20383;-85
2023/10/02 06:10:26;;;;;;;22.38;13.63;;;14.90;99.90;;;;;;5082173;27;20052;-85
2023/10/02 06:13:02;;;;;;;22.30;14.10;;;15.60;99.90;;;;;;5091972;28;20040;-85
2023/10/02 06:15:48;;;;;;;21.83;12.57;;;15.00;99.90;;;;;;5111495;27;20047;-85
2023/10/02 06:18:27;;;;;;;24.92;14.65;;;15.00;99.90;;;;;;5074412;28;20050;-85
2023/10/02 06:21:03;;;;;;;25.13;14.23;;;15.20;99.90;;;;;;5097084;27;20039;-86
2023/10/02 06:23:38;;;;;;;23.08;13.82;;;14.20;99.90;;;;;;5075177;28;20047;-86
2023/10/02 06:26:09;;;;;;;26.20;14.10;;;15.10;99.90;;;;;;5074331;28;20062;-84
2023/10/02 06:28:36;;;;;;;23.67;12.85;;;15.20;99.90;;;;;;5091862;28;20101;-85
2023/10/02 06:31:02;;;;;;;21.90;13.27;;;15.20;99.90;;;;;;5092833;28;20134;-85
2023/10/02 06:33:28;;;;;;;22.40;13.38;;;15.30;99.90;;;;;;5104349;27;20184;-85
2023/10/02 06:35:57;;;;;;;21.98;13.40;;;15.50;99.90;;;;;;5094076;28;20210;-85
2023/10/02 06:38:29;;;;;;;23.05;14.15;;;15.50;99.90;;;;;;5091936;28;20533;-85
2023/10/02 06:40:59;;;;;;;23.73;13.75;;;15.60;99.90;;;;;;5091796;28;20815;-85
2023/10/02 06:43:32;;;;;;;21.50;13.68;;;15.60;99.90;;;;;;5109732;28;20047;-85
2023/10/02 06:46:07;;;;;;;25.65;14.20;;;15.70;99.90;;;;;;5090348;28;20525;-85
2023/10/02 06:48:35;;;;;;;22.30;13.98;;;15.80;99.90;;;;;;5091473;28;20107;-85
2023/10/02 06:51:04;;;;;;;20.98;13.38;;;15.90;99.90;;;;;;5086314;28;20036;-86
2023/10/02 06:53:33;;;;;;;19.95;13.23;;;16.50;99.90;;;;;;5090975;27;20498;-85
2023/10/02 06:56:06;;;;;;;22.35;13.20;;;16.00;99.90;;;;;;5073574;28;20054;-85
2023/10/02 06:58:45;;;;;;;23.60;13.48;;;16.00;99.90;;;;;;5074381;28;20052;-85
2023/10/02 07:01:13;;;;;;;23.85;13.50;;;16.10;99.90;;;;;;5074220;28;20094;-86
2023/10/02 07:03:39;;;;;;;23.75;13.30;;;16.40;99.90;;;;;;5086549;27;20043;-86
2023/10/02 07:06:07;;;;;;;21.85;13.57;;;16.20;99.90;;;;;;5081457;27;20046;-81
2023/10/02 07:08:35;;;;;;;23.60;13.48;;;16.20;99.90;;;;;;5097603;28;20044;-83
2023/10/02 07:11:10;;;;;;;21.48;14.35;;;16.30;99.90;;;;;;5107836;27;20054;-84
2023/10/02 07:13:50;;;;;;;24.95;14.60;;;16.40;99.90;;;;;;5094275;27;20051;-82
2023/10/02 07:16:17;;;;;;;22.10;13.55;;;16.40;99.90;;;;;;5094261;27;20067;-83
2023/10/02 07:18:49;;;;;;;22.75;13.18;;;16.70;99.90;;;;;;5093609;28;21164;-83
2023/10/02 07:21:21;;;;;;;20.75;13.48;;;16.60;99.90;;;;;;5099228;28;20039;-82
2023/10/02 07:23:48;;;;;;;20.48;13.48;;;16.70;99.90;;;;;;5090769;28;20490;-83
2023/10/02 07:26:46;;;;;;;19.70;13.55;;;16.80;99.90;;;;;;5090123;28;20130;-82
2023/10/02 07:29:07;;;;;;;25.50;15.32;;;16.90;99.90;;;;;;5092182;27;20051;-83
2023/10/02 07:31:34;;;;;;;22.27;13.30;;;17.00;99.90;;;;;;5129446;27;20080;-82
2023/10/02 07:34:01;;;;;;;19.50;13.52;;;17.30;99.90;;;;;;5110840;27;20082;-83
2023/10/02 07:36:26;;;;;;;21.65;13.07;;;17.00;99.90;;;;;;5097614;27;20506;-83
2023/10/02 07:38:54;;;;;;;20.67;13.20;;;17.00;99.90;;;;;;5090226;28;20047;-83
2023/10/02 07:41:24;;;;;;;20.05;13.05;;;17.10;99.90;;;;;;5099892;27;20047;-85
2023/10/02 07:43:55;;;;;;;22.92;14.05;;;17.10;99.90;;;;;;5093523;28;20087;-84
2023/10/02 07:46:22;;;;;;;23.48;13.77;;;17.60;99.90;;;;;;5090582;28;20123;-85
2023/10/02 07:48:57;;;;;;;22.83;13.70;;;17.20;99.90;;;;;;5090356;28;20379;-86
2023/10/02 07:51:30;;;;;;;20.20;13.93;;;17.30;99.90;;;;;;5108699;28;20487;-84
2023/10/02 07:54:03;;;;;;;21.50;13.52;;;17.40;99.90;;;;;;5072739;27;20226;-83
2023/10/02 07:56:29;;;;;;;21.90;14.20;;;17.40;99.90;;;;;;5106822;28;20096;-85
2023/10/02 07:59:01;;;;;;;21.00;13.35;;;17.50;99.90;;;;;;5077178;28;20529;-84
2023/10/02 08:01:33;;;;;;;;;;;17.50;99.90;;;;;;5104672;28;20066;-82
2023/10/02 08:04:01;;;;;;;23.08;13.57;;;17.50;99.90;;;;;;5106274;27;19969;-84
2023/10/02 08:06:33;;;;;;;23.80;13.65;;;17.60;99.90;;;;;;5100688;28;20093;-83
2023/10/02 08:11:52;;;;;;;20.02;13.65;;;18.00;99.90;;;;;;5108848;28;20043;-83
2023/10/02 08:14:35;;;;;;;20.83;13.23;;;17.90;99.90;;;;;;5072943;28;20041;-82
2023/10/02 08:17:08;;;;;;;20.95;13.38;;;17.90;99.90;;;;;;5097453;28;20050;-83
2023/10/02 08:19:36;;;;;;;24.58;13.85;;;18.60;99.90;;;;;;5104042;28;20112;-84
2023/10/02 08:22:05;;;;;;;24.55;14.43;;;18.10;99.90;;;;;;5089488;28;20035;-84
2023/10/02 08:24:37;;;;;;;22.33;13.38;;;18.10;99.90;;;;;;5110370;28;20070;-84
2023/10/02 08:27:04;;;;;;;24.05;14.60;;;18.10;99.90;;;;;;5118304;28;20039;-84
2023/10/02 08:29:30;;;;;;;23.88;13.77;;;18.60;99.90;;;;;;5075713;28;20502;-83
2023/10/02 08:31:56;;;;;;;21.02;14.00;;;17.90;99.90;;;;;;5103272;28;20048;-83
2023/10/02 08:34:24;;;;;;;22.38;14.10;;;18.30;99.90;;;;;;5091792;28;20615;-84
2023/10/02 08:37:07;;;;;;;25.17;13.43;;;18.50;99.90;;;;;;5073952;28;20090;-86
2023/10/02 08:39:41;;;;;;;22.30;13.88;;;18.60;99.90;;;;;;5087613;28;20087;-86
2023/10/02 08:42:10;;;;;;;20.45;13.38;;;18.80;99.90;;;;;;5088360;28;20063;-86
2023/10/02 08:44:40;;;;;;;21.55;13.13;;;19.00;99.90;;;;;;5072412;28;20498;-86
2023/10/02 08:47:24;;;;;;;21.85;13.50;;;19.00;99.90;;;;;;5105352;28;20051;-87
2023/10/02 08:50:05;;;;;;;22.25;13.73;;;19.00;99.90;;;;;;5106982;28;20516;-86
2023/10/02 08:52:48;;;;;;;22.38;14.48;;;19.10;99.90;;;;;;5106677;28;20051;-86
2023/10/02 08:55:51;;;;;;;22.10;13.52;;;19.00;99.90;;;;;;5087914;28;20062;-88
2023/10/02 08:58:22;;;;;;;22.50;13.55;;;20.00;99.90;;;;;;5106218;28;20108;-86
2023/10/02 09:03:42;;;;;;;25.20;14.40;;;19.30;99.90;;;;;;5087315;28;20046;-85
2023/10/02 09:06:25;;;;;;;22.13;13.88;;;19.60;99.90;;;;;;5089696;28;20149;-86
2023/10/02 09:11:36;;;;;;;22.42;14.23;;;19.50;99.90;;;;;;5110965;28;20055;-86
2023/10/02 09:16:47;;;;;;;;;;;19.50;99.90;;;;;;5091274;28;20155;-86
2023/10/02 09:19:30;;;;;;;24.77;15.00;;;19.40;99.90;;;;;;5090600;28;19920;-86
2023/10/02 09:22:06;;;;;;;25.10;15.07;;;19.40;99.90;;;;;;5073883;28;20556;-86
2023/10/02 09:24:40;;;;;;;26.30;16.27;;;19.40;99.90;;;;;;5090926;28;20047;-85
2023/10/02 09:27:23;;;;;;;27.45;16.88;;;19.50;99.90;;;;;;5090451;28;20055;-86
2023/10/02 09:30:18;;;;;;;29.77;18.77;;;19.60;99.90;;;;;;5073690;28;20063;-86
2023/10/02 09:32:49;;;;;;;38.05;18.85;;;19.60;99.90;;;;;;5093438;28;20505;-85
2023/10/02 09:35:29;;;;;;;34.65;19.67;;;20.60;99.90;;;;;;5094923;28;20040;-86
2023/10/02 09:38:03;;;;;;;30.75;19.17;;;20.20;99.90;;;;;;5092718;28;20071;-85
2023/10/02 09:43:23;;;;;;;29.15;19.27;;;19.80;99.90;;;;;;5114313;27;20051;-87
2023/10/02 09:45:52;;;;;;;31.67;18.75;;;20.10;99.90;;;;;;5109746;28;20048;-86
2023/10/02 09:51:25;;;;;;;33.50;18.73;;;20.90;99.90;;;;;;5102037;27;20358;-88
2023/10/02 09:54:05;;;;;;;33.03;18.98;;;20.30;99.90;;;;;;5098471;28;20126;-87
2023/10/02 09:57:04;;;;;;;31.90;18.73;;;20.30;99.90;;;;;;5096892;28;20109;-87
2023/10/02 09:59:45;;;;;;;32.08;18.40;;;20.30;99.90;;;;;;5102674;28;20047;-87
2023/10/02 10:08:18;;;;;;;28.45;17.45;;;20.20;99.90;;;;;;5107245;27;20054;-88
2023/10/02 10:10:57;;;;;;;31.42;17.20;;;20.10;99.90;;;;;;5102070;27;20051;-88
2023/10/02 10:13:36;;;;;;;26.75;17.00;;;20.10;99.90;;;;;;5095586;27;20047;-88
2023/10/02 10:16:20;;;;;;;28.48;17.40;;;20.20;99.90;;;;;;5100878;28;20051;-88
2023/10/02 10:22:04;;;;;;;29.23;18.80;;;20.40;99.90;;;;;;5082081;28;20040;-88
2023/10/02 10:27:41;;;;;;;28.70;17.45;;;20.40;99.90;;;;;;5092703;28;20048;-88
2023/10/02 10:30:24;;;;;;;28.25;17.65;;;20.40;99.90;;;;;;5092763;28;20891;-88
2023/10/02 10:35:38;;;;;;;29.08;17.45;;;20.30;99.90;;;;;;5092681;27;20047;-87
2023/10/02 10:38:25;;;;;;;29.30;18.33;;;20.40;99.90;;;;;;5074447;28;20502;-87
2023/10/02 10:40:54;;;;;;;33.55;19.17;;;20.40;99.90;;;;;;5073876;28;20138;-87
2023/10/02 10:43:39;;;;;;;29.90;18.75;;;20.40;99.90;;;;;;5091222;28;20062;-86
2023/10/02 10:46:12;;;;;;;29.90;17.88;;;20.50;99.90;;;;;;5088766;27;20047;-89
2023/10/02 10:48:40;;;;;;;29.80;18.08;;;20.60;99.90;;;;;;5074751;28;20047;-86
2023/10/02 10:51:20;;;;;;;26.88;17.83;;;20.80;99.90;;;;;;5074247;28;20044;-88
2023/10/02 10:53:47;;;;;;;27.25;17.52;;;21.10;99.90;;;;;;5076100;27;20490;-88
2023/10/02 10:56:19;;;;;;;27.90;18.50;;;21.10;99.90;;;;;;5099224;28;20071;-86
2023/10/02 10:58:47;;;;;;;30.33;18.00;;;21.40;99.90;;;;;;5091319;28;20047;-89
2023/10/02 11:01:16;;;;;;;27.05;17.02;;;22.10;99.90;;;;;;5091358;28;20048;-90
2023/10/02 11:03:54;;;;;;;26.85;17.20;;;22.10;99.90;;;;;;5092344;28;20071;-90
2023/10/02 11:06:23;;;;;;;25.52;15.60;;;21.60;99.90;;;;;;5090837;28;20056;-85
2023/10/02 11:09:12;;;;;;;25.50;15.52;;;22.90;99.90;;;;;;5102681;27;20091;-85
2023/10/02 11:11:50;;;;;;;25.27;16.60;;;21.60;99.90;;;;;;5090003;28;20052;-85
2023/10/02 11:14:23;;;;;;;28.38;16.98;;;21.60;99.90;;;;;;5074238;28;20044;-84
2023/10/02 11:16:54;;;;;;;26.80;16.98;;;21.50;99.90;;;;;;5091025;27;20060;-84
2023/10/02 11:19:25;;;;;;;26.15;17.30;;;21.50;99.90;;;;;;5105025;27;20165;-84
2023/10/02 11:22:01;;;;;;;28.17;17.38;;;21.70;99.90;;;;;;5091668;27;20097;-84
2023/10/02 11:24:27;;;;;;;29.65;18.30;;;21.40;99.90;;;;;;5073817;28;20100;-85
2023/10/02 11:27:12;;;;;;;30.55;18.08;;;21.50;99.90;;;;;;5075118;28;20063;-90
2023/10/02 11:29:40;;;;;;;25.20;16.50;;;21.60;99.90;;;;;;5092308;28;20040;-88
2023/10/02 11:32:19;;;;;;;26.83;16.75;;;22.50;99.90;;;;;;5080414;27;20035;-88
2023/10/02 11:35:03;;;;;;;28.27;18.30;;;22.20;99.90;;;;;;5111437;27;20082;-87
2023/10/02 11:37:28;;;;;;;28.17;17.83;;;22.00;99.90;;;;;;5110821;27;20088;-86
2023/10/02 11:39:55;;;;;;;29.08;17.10;;;21.60;99.90;;;;;;5108517;27;20059;-87
2023/10/02 11:42:24;;;;;;;27.80;17.38;;;22.50;99.90;;;;;;5074869;28;20050;-87
2023/10/02 11:44:50;;;;;;;28.95;16.67;;;21.60;99.90;;;;;;5105527;27;20043;-87
2023/10/02 11:47:15;;;;;;;28.35;18.15;;;21.50;99.90;;;;;;5080563;27;20053;-87
2023/10/02 11:49:42;;;;;;;29.40;19.00;;;21.50;99.90;;;;;;5111148;28;20100;-87
2023/10/02 11:52:08;;;;;;;26.55;17.17;;;21.70;99.90;;;;;;5093097;27;20072;-87
2023/10/02 11:54:39;;;;;;;30.77;18.20;;;21.40;99.90;;;;;;5082944;28;20050;-87
2023/10/02 11:57:08;;;;;;;29.15;18.55;;;21.20;99.90;;;;;;5090455;28;20083;-86
2023/10/02 11:59:38;;;;;;;25.48;17.38;;;22.00;99.90;;;;;;5090012;28;20036;-87
2023/10/02 12:02:04;;;;;;;25.88;17.88;;;21.50;99.90;;;;;;5091768;28;20039;-87
2023/10/02 12:04:30;;;;;;;25.02;17.25;;;21.90;99.90;;;;;;5072100;28;20088;-87
2023/10/02 12:06:57;;;;;;;29.30;18.73;;;21.50;99.90;;;;;;5091781;27;20045;-85
2023/10/02 12:09:24;;;;;;;27.00;17.42;;;21.60;99.90;;;;;;5095088;28;20043;-87
2023/10/02 12:11:50;;;;;;;26.10;16.95;;;21.40;99.90;;;;;;5106639;27;20719;-86
2023/10/02 12:14:16;;;;;;;26.00;16.38;;;21.70;99.90;;;;;;5087083;28;20082;-86
2023/10/02 12:16:41;;;;;;;27.13;17.65;;;21.80;99.90;;;;;;5076298;28;20097;-87
2023/10/02 12:19:10;;;;;;;29.55;16.65;;;22.50;99.90;;;;;;5107099;28;20044;-87
2023/10/02 12:21:36;;;;;;;24.77;14.98;;;21.70;99.90;;;;;;5073070;28;20043;-87
2023/10/02 12:24:03;;;;;;;22.88;14.25;;;22.30;99.90;;;;;;5107057;28;20043;-88
2023/10/02 12:26:29;;;;;;;23.75;14.38;;;22.30;99.90;;;;;;5090034;28;20043;-87
2023/10/02 12:28:55;;;;;;;22.83;13.40;;;22.40;99.90;;;;;;5074525;28;20448;-86
2023/10/02 12:31:21;;;;;;;20.85;13.23;;;22.80;99.90;;;;;;5111105;28;20040;-86
2023/10/02 12:33:50;;;;;;;20.08;12.23;;;22.80;99.90;;;;;;5078263;28;20162;-86
2023/10/02 12:36:18;;;;;;;18.75;12.50;;;22.40;99.90;;;;;;5078384;28;20050;-85
2023/10/02 12:38:48;;;;;;;20.55;12.00;;;22.30;99.90;;;;;;5073497;28;20050;-85
2023/10/02 12:41:19;;;;;;;16.77;11.00;;;22.80;99.90;;;;;;5101166;28;20523;-86
2023/10/02 12:43:46;;;;;;;17.60;11.73;;;22.30;99.90;;;;;;5093305;28;20075;-85
2023/10/02 12:46:16;;;;;;;19.52;11.07;;;22.70;99.90;;;;;;5111957;28;20487;-86
2023/10/02 12:48:46;;;;;;;18.27;10.90;;;22.50;99.90;;;;;;5077180;28;20348;-86
2023/10/02 12:51:16;;;;;;;19.88;11.73;;;22.50;99.90;;;;;;5093929;28;20043;-88
2023/10/02 12:53:45;;;;;;;16.80;9.95;;;23.30;99.90;;;;;;5078545;28;20036;-90
2023/10/02 12:56:20;;;;;;;17.42;10.60;;;22.70;99.90;;;;;;5095663;28;20075;-89
2023/10/02 12:58:50;;;;;;;17.10;10.50;;;22.80;99.90;;;;;;5109838;27;20050;-90
2023/10/02 13:01:24;;;;;;;19.05;11.57;;;22.80;99.90;;;;;;5108942;27;20061;-90
2023/10/02 13:03:56;;;;;;;18.73;11.90;;;22.80;99.90;;;;;;5119012;27;20057;-89
2023/10/02 13:06:26;;;;;;;20.45;11.95;;;22.80;99.90;;;;;;5088517;28;20042;-89
2023/10/02 13:08:58;;;;;;;19.77;12.02;;;22.90;99.90;;;;;;5100753;27;20466;-86
2023/10/02 13:11:24;;;;;;;18.00;12.05;;;22.90;99.90;;;;;;5119103;27;20115;-87
2023/10/02 13:13:52;;;;;;;19.05;11.25;;;23.60;99.90;;;;;;5105211;27;20104;-86
2023/10/02 13:16:19;;;;;;;19.50;11.27;;;23.00;99.90;;;;;;5107953;28;20119;-86
2023/10/02 13:18:45;;;;;;;18.20;11.35;;;23.60;99.90;;;;;;5098948;27;20119;-88
2023/10/02 13:21:19;;;;;;;18.73;11.32;;;23.90;99.90;;;;;;5104160;28;20058;-85
2023/10/02 13:23:47;;;;;;;21.52;11.52;;;23.60;99.90;;;;;;5092389;28;20046;-85
2023/10/02 13:26:16;;;;;;;20.42;11.35;;;24.00;99.90;;;;;;5098401;28;20047;-84
2023/10/02 13:28:48;;;;;;;18.23;11.60;;;23.10;99.90;;;;;;5093304;28;20499;-88
2023/10/02 13:31:16;;;;;;;18.35;11.35;;;23.10;99.90;;;;;;5077312;28;20131;-86
2023/10/02 13:33:47;;;;;;;18.15;10.90;;;22.90;99.90;;;;;;5095315;28;20118;-85
2023/10/02 13:36:14;;;;;;;16.67;10.88;;;23.20;99.90;;;;;;5104221;27;20103;-85
2023/10/02 13:38:41;;;;;;;17.25;10.95;;;24.10;99.90;;;;;;5092901;28;20055;-87
2023/10/02 13:41:13;;;;;;;18.20;10.07;;;23.20;99.90;;;;;;5076197;28;20051;-88
2023/10/02 13:43:44;;;;;;;16.05;10.68;;;23.20;99.90;;;;;;5093238;27;20055;-87
2023/10/02 13:46:17;;;;;;;15.90;10.10;;;23.20;99.90;;;;;;5091849;28;20519;-88
2023/10/02 13:48:44;;;;;;;14.38;9.80;;;23.10;99.90;;;;;;5074844;28;20039;-87
2023/10/02 13:51:10;;;;;;;16.50;9.15;;;23.10;99.90;;;;;;5075346;28;20036;-87
2023/10/02 13:53:37;;;;;;;14.40;8.70;;;23.20;99.90;;;;;;5089767;27;20043;-87
2023/10/02 13:56:26;;;;;;;17.13;9.57;;;23.10;99.90;;;;;;5110725;27;20047;-85
2023/10/02 13:58:53;;;;;;;19.20;10.50;;;23.20;99.90;;;;;;5092105;28;20075;-85
2023/10/02 14:01:20;;;;;;;17.70;11.60;;;23.40;99.90;;;;;;5110448;27;20066;-86
2023/10/02 14:03:49;;;;;;;18.27;10.32;;;23.10;99.90;;;;;;5077948;28;20077;-87
2023/10/02 14:06:17;;;;;;;23.85;12.23;;;23.50;99.90;;;;;;5109052;28;20388;-86
2023/10/02 14:08:44;;;;;;;17.27;11.65;;;23.40;99.90;;;;;;5101963;28;20066;-86
2023/10/02 14:11:18;;;;;;;16.92;10.50;;;23.10;99.90;;;;;;5091754;28;20806;-87
2023/10/02 14:13:48;;;;;;;18.33;10.70;;;22.90;99.90;;;;;;5092255;28;20086;-86